Time;durP1;ratioP1;P1;durP2;ratioP2;P2;SDS_P1;SDS_P2;PMS_P1;PMS_P2;Temp;Humidity;BMP_temperature;BMP_pressure;BME280_temperature;BME280_humidity;BME280_pressure;Samples;Min_cycle;Max_cycle;Signal;HPM_P1;HPM_P2
2022/07/28 00:01:28;;;;;;;;;1.25;1.00;;;;;22.02;36.58;101185.34;4999770;28;45597;-62
2022/07/28 00:03:53;;;;;;;;;3.25;2.00;;;;;22.02;36.25;101191.63;5012058;28;45420;-61
2022/07/28 00:06:18;;;;;;;;;1.00;0.25;;;;;21.94;36.76;101169.59;5017029;28;54756;-61
2022/07/28 00:08:44;;;;;;;;;1.25;1.25;;;;;22.00;36.69;101174.56;5014824;28;45471;-61
2022/07/28 00:11:09;;;;;;;;;1.25;1.25;;;;;21.96;36.63;101181.19;5015513;28;45233;-62
2022/07/28 00:13:34;;;;;;;;;1.25;1.25;;;;;21.95;36.19;101171.34;5015833;28;45454;-61
2022/07/28 00:16:00;;;;;;;;;1.00;1.00;;;;;21.94;37.06;101174.16;5015255;28;45912;-61
2022/07/28 00:18:25;;;;;;;;;3.00;2.00;;;;;21.95;36.85;101175.88;5017713;28;45888;-61
2022/07/28 00:20:50;;;;;;;;;1.25;1.25;;;;;21.93;36.48;101173.28;5012613;28;45410;-61
2022/07/28 00:23:15;;;;;;;;;1.25;1.25;;;;;21.96;36.19;101170.34;5016039;28;45405;-61
2022/07/28 00:25:41;;;;;;;;;2.00;2.00;;;;;21.93;36.80;101162.41;5013088;28;46277;-61
2022/07/28 00:28:06;;;;;;;;;1.25;1.25;;;;;21.90;37.02;101150.88;5013778;28;45530;-61
2022/07/28 00:30:31;;;;;;;;;1.75;1.75;;;;;21.90;36.72;101159.94;5017337;28;45687;-62
2022/07/28 00:32:57;;;;;;;;;2.00;2.00;;;;;21.88;36.34;101155.56;5018043;28;45463;-61
2022/07/28 00:35:22;;;;;;;;;1.00;1.00;;;;;21.81;37.13;101147.00;5016030;28;45556;-61
2022/07/28 00:37:47;;;;;;;;;1.25;1.25;;;;;21.81;36.75;101150.59;5012729;28;45747;-61
2022/07/28 00:40:13;;;;;;;;;2.75;2.00;;;;;21.81;36.64;101149.72;5013897;28;45560;-61
2022/07/28 00:42:38;;;;;;;;;2.00;2.00;;;;;21.80;36.94;101151.59;5015337;28;45547;-61
2022/07/28 00:45:04;;;;;;;;;1.25;1.25;;;;;21.76;36.88;101144.63;5012397;28;45499;-61
2022/07/28 00:47:30;;;;;;;;;2.00;2.00;;;;;21.78;37.12;101149.94;5015261;28;45727;-61
2022/07/28 00:49:55;;;;;;;;;1.00;1.00;;;;;21.74;37.18;101138.44;5010899;28;45982;-62
2022/07/28 00:52:21;;;;;;;;;1.50;1.00;;;;;21.69;37.20;101135.19;5014542;28;45728;-61
2022/07/28 00:54:46;;;;;;;;;1.25;1.00;;;;;21.68;36.86;101129.88;5015828;28;46128;-62
2022/07/28 00:57:12;;;;;;;;;1.00;1.00;;;;;21.72;36.80;101131.38;5013879;28;45518;-61
2022/07/28 00:59:37;;;;;;;;;1.00;1.00;;;;;21.68;37.18;101138.03;5015018;28;45501;-62
2022/07/28 01:02:03;;;;;;;;;1.00;1.00;;;;;21.61;37.49;101133.03;5014581;28;45536;-61
2022/07/28 01:04:29;;;;;;;;;1.00;1.00;;;;;21.62;36.90;101123.03;5016461;28;45504;-62
2022/07/28 01:07:14;;;;;;;;;2.00;2.00;;;;;21.62;37.46;101123.91;5014488;28;46260;-62
2022/07/28 01:09:50;;;;;;;;;1.25;1.25;;;;;21.57;37.19;101123.38;5015914;28;45705;-61
2022/07/28 01:12:21;;;;;;;;;1.00;1.00;;;;;21.52;36.93;101124.66;5020005;28;45228;-61
2022/07/28 01:15:09;;;;;;;;;0.00;0.00;;;;;21.49;37.63;101111.34;5016426;28;46310;-61
2022/07/28 01:17:55;;;;;;;;;1.50;1.00;;;;;21.46;37.72;101113.25;5009060;28;45546;-61
2022/07/28 01:20:49;;;;;;;;;2.00;1.00;;;;;21.46;37.80;101112.38;5016937;28;45225;-61
2022/07/28 01:23:32;;;;;;;;;1.00;1.00;;;;;21.44;37.71;101112.50;5016523;28;45740;-62
2022/07/28 01:26:27;;;;;;;;;1.75;1.75;;;;;21.40;37.79;101119.13;5011075;28;45415;-61
2022/07/28 01:29:20;;;;;;;;;1.00;0.75;;;;;21.38;37.91;101115.63;5006319;28;45429;-61
2022/07/28 01:32:15;;;;;;;;;1.00;1.00;;;;;21.37;37.41;101119.34;5014535;28;45559;-61
2022/07/28 01:34:50;;;;;;;;;1.00;1.00;;;;;21.36;37.77;101111.31;5012990;28;46936;-61
2022/07/28 01:37:21;;;;;;;;;1.25;1.25;;;;;21.33;37.52;101106.09;5013890;28;46185;-62
2022/07/28 01:39:52;;;;;;;;;2.25;0.50;;;;;21.29;37.71;101108.19;5014945;28;45485;-61
2022/07/28 01:42:21;;;;;;;;;2.00;2.00;;;;;21.29;37.54;101111.75;5017875;28;45648;-61
2022/07/28 01:44:49;;;;;;;;;0.25;0.25;;;;;21.24;37.71;101107.63;5016661;28;45732;-62
2022/07/28 01:47:15;;;;;;;;;1.50;0.00;;;;;21.24;37.87;101103.06;5013864;28;46445;-61
2022/07/28 01:49:44;;;;;;;;;1.00;1.00;;;;;21.28;38.13;101109.13;5015358;28;46176;-62
2022/07/28 01:52:09;;;;;;;;;3.25;1.00;;;;;21.29;37.97;101109.03;5012250;28;46037;-61
2022/07/28 01:54:41;;;;;;;;;1.00;1.00;;;;;21.32;37.77;101105.25;5015100;28;45574;-61
2022/07/28 01:57:13;;;;;;;;;1.00;1.00;;;;;21.25;38.28;101090.34;5012626;28;46253;-61
2022/07/28 01:59:39;;;;;;;;;1.00;1.00;;;;;21.29;38.53;101090.03;5015060;28;45335;-61
2022/07/28 02:02:07;;;;;;;;;1.25;1.25;;;;;21.31;38.34;101098.06;5008479;28;45462;-61
2022/07/28 02:04:36;;;;;;;;;1.00;1.00;;;;;21.31;38.02;101100.78;5013343;28;45335;-61
2022/07/28 02:07:02;;;;;;;;;1.00;1.00;;;;;21.33;37.84;101092.53;5015773;28;46170;-62
2022/07/28 02:09:29;;;;;;;;;1.00;1.00;;;;;21.34;38.15;101097.84;5010860;28;46102;-61
2022/07/28 02:11:56;;;;;;;;;1.00;1.00;;;;;21.35;38.21;101087.84;5016513;28;45303;-61
2022/07/28 02:14:22;;;;;;;;;1.25;1.25;;;;;21.37;38.15;101086.78;5015706;28;45448;-61
2022/07/28 02:16:52;;;;;;;;;2.00;1.00;;;;;21.38;38.41;101084.91;5008745;28;46241;-61
2022/07/28 02:19:20;;;;;;;;;1.00;1.00;;;;;21.38;38.07;101074.91;5014630;28;45478;-61
2022/07/28 02:21:46;;;;;;;;;0.25;0.25;;;;;21.40;37.99;101072.09;5017121;28;45454;-61
2022/07/28 02:24:13;;;;;;;;;1.00;1.00;;;;;21.38;37.66;101074.91;5014038;28;45384;-61
2022/07/28 02:26:43;;;;;;;;;1.00;1.00;;;;;21.39;38.22;101070.38;5014148;28;45256;-61
2022/07/28 02:29:12;;;;;;;;;2.00;1.50;;;;;21.35;38.39;101072.44;5009930;28;45689;-61
2022/07/28 02:31:49;;;;;;;;;1.00;1.00;;;;;21.35;38.25;101067.00;5013400;28;45443;-61
2022/07/28 02:34:15;;;;;;;;;1.00;1.00;;;;;21.36;38.07;101071.44;5012968;28;45579;-61
2022/07/28 02:36:48;;;;;;;;;1.75;1.75;;;;;21.37;38.14;101073.19;5013199;28;46107;-61
2022/07/28 02:39:23;;;;;;;;;1.00;1.00;;;;;21.39;38.16;101070.38;5010970;28;45564;-61
2022/07/28 02:41:54;;;;;;;;;1.00;1.00;;;;;21.36;38.53;101060.59;5009519;28;45540;-62
2022/07/28 02:44:26;;;;;;;;;1.00;1.00;;;;;21.42;38.50;101064.72;5015110;28;45381;-61
2022/07/28 02:46:54;;;;;;;;;2.00;2.00;;;;;21.42;38.65;101068.28;5005985;28;45525;-61
2022/07/28 02:49:27;;;;;;;;;2.00;1.00;;;;;21.44;38.35;101065.47;5013129;28;45649;-61
2022/07/28 02:51:55;;;;;;;;;1.00;1.00;;;;;21.48;38.52;101061.56;5011822;28;47064;-62
2022/07/28 02:54:24;;;;;;;;;1.00;1.00;;;;;21.48;38.55;101060.72;5010433;28;45390;-61
2022/07/28 02:56:51;;;;;;;;;2.00;2.00;;;;;21.50;37.99;101064.16;5012222;28;46257;-61
2022/07/28 02:59:19;;;;;;;;;1.50;1.50;;;;;21.49;38.02;101062.44;5017577;28;45325;-61
2022/07/28 03:01:46;;;;;;;;;2.00;2.00;;;;;21.46;38.25;101061.63;5013103;28;45443;-61
2022/07/28 03:04:13;;;;;;;;;1.75;1.00;;;;;21.45;38.89;101068.06;5014532;28;45638;-61
2022/07/28 03:06:39;;;;;;;;;2.00;1.00;;;;;21.46;38.42;101067.06;5015514;28;45353;-61
2022/07/28 03:09:07;;;;;;;;;1.75;1.75;;;;;21.44;38.67;101054.59;5015675;28;45356;-62
2022/07/28 03:11:33;;;;;;;;;1.00;1.00;;;;;21.43;38.34;101059.19;5012566;28;45264;-62
2022/07/28 03:13:58;;;;;;;;;2.00;2.00;;;;;21.38;38.06;101061.34;5009966;28;47140;-61
2022/07/28 03:16:24;;;;;;;;;2.00;1.75;;;;;21.40;38.57;101055.78;5013024;28;45529;-62
2022/07/28 03:18:50;;;;;;;;;2.25;2.00;;;;;21.44;38.82;101054.59;5010203;28;45559;-62
2022/07/28 03:21:15;;;;;;;;;2.00;2.00;;;;;21.45;38.66;101067.19;5012735;28;45383;-62
2022/07/28 03:23:43;;;;;;;;;2.00;2.00;;;;;21.44;38.52;101066.31;5010601;28;45497;-61
2022/07/28 03:26:18;;;;;;;;;1.00;1.00;;;;;21.43;38.74;101061.91;5010989;28;46061;-62
2022/07/28 03:28:45;;;;;;;;;2.00;2.00;;;;;21.42;38.92;101062.88;5014211;28;45441;-61
2022/07/28 03:31:12;;;;;;;;;2.50;1.00;;;;;21.43;38.40;101056.47;5017228;28;45419;-62
2022/07/28 03:33:38;;;;;;;;;1.25;1.25;;;;;21.42;38.71;101065.56;5014712;28;45502;-61
2022/07/28 03:36:17;;;;;;;;;3.00;2.00;;;;;21.38;38.36;101055.91;5015389;28;46289;-61
2022/07/28 03:38:50;;;;;;;;;2.00;1.25;;;;;21.41;38.75;101057.53;5022687;28;45422;-61
2022/07/28 03:41:17;;;;;;;;;3.00;3.00;;;;;21.41;38.90;101058.41;5018548;28;45268;-61
2022/07/28 03:43:43;;;;;;;;;2.00;2.00;;;;;21.38;38.82;101055.03;5017668;28;45463;-61
2022/07/28 03:46:08;;;;;;;;;2.00;2.00;;;;;21.37;38.96;101056.91;5014596;28;45654;-61
2022/07/28 03:48:34;;;;;;;;;1.00;1.00;;;;;21.34;38.66;101054.41;5017420;28;45664;-61
2022/07/28 03:51:00;;;;;;;;;2.00;2.00;;;;;21.38;38.51;101052.31;5016342;28;45545;-61
2022/07/28 03:53:27;;;;;;;;;3.00;2.00;;;;;21.34;39.18;101048.97;5015293;28;45545;-61
2022/07/28 03:55:52;;;;;;;;;2.00;2.00;;;;;21.35;38.54;101058.88;5016353;28;46344;-61
2022/07/28 03:58:23;;;;;;;;;1.25;1.25;;;;;21.34;38.68;101053.53;5012812;28;46852;-61
2022/07/28 04:00:50;;;;;;;;;2.00;2.00;;;;;21.34;39.09;101054.41;5015795;28;45545;-61
2022/07/28 04:03:17;;;;;;;;;2.25;1.00;;;;;21.33;38.73;101062.66;5017585;28;45446;-61
2022/07/28 04:05:43;;;;;;;;;1.00;1.00;;;;;21.28;38.50;101063.88;5016234;28;46190;-61
2022/07/28 04:08:08;;;;;;;;;2.00;2.00;;;;;21.24;39.11;101065.06;5020033;28;45292;-61
2022/07/28 04:10:34;;;;;;;;;1.75;1.75;;;;;21.22;39.00;101056.16;5016601;28;45490;-61
2022/07/28 04:12:59;;;;;;;;;2.00;2.00;;;;;21.22;39.23;101061.59;5013860;28;45453;-61
2022/07/28 04:15:26;;;;;;;;;1.00;1.00;;;;;21.22;39.39;101063.44;5014072;28;45462;-62
2022/07/28 04:17:53;;;;;;;;;1.00;1.00;;;;;21.23;38.83;101063.34;5020384;28;45435;-61
2022/07/28 04:20:21;;;;;;;;;1.00;1.00;;;;;21.24;39.16;101059.63;5017081;28;45432;-61
2022/07/28 04:22:47;;;;;;;;;3.00;3.00;;;;;21.22;39.04;101055.31;5018371;28;45466;-61
2022/07/28 04:25:14;;;;;;;;;2.50;2.50;;;;;21.19;38.77;101055.53;5018247;28;45663;-62
2022/07/28 04:27:41;;;;;;;;;2.25;2.25;;;;;21.15;39.09;101048.56;5020677;28;45509;-61
2022/07/28 04:30:12;;;;;;;;;2.00;2.00;;;;;21.17;39.06;101052.06;5021099;28;45391;-61
2022/07/28 04:32:38;;;;;;;;;2.00;2.00;;;;;21.18;39.88;101056.50;5015859;28;45389;-61
2022/07/28 04:35:04;;;;;;;;;3.00;3.00;;;;;21.20;39.62;101052.69;5012304;28;45584;-61
2022/07/28 04:37:30;;;;;;;;;5.00;5.00;;;;;21.20;39.45;101040.94;5012912;28;45492;-62
2022/07/28 04:39:55;;;;;;;;;8.50;8.50;;;;;21.22;39.33;101045.31;5017848;28;45543;-61
2022/07/28 04:42:20;;;;;;;;;6.00;5.25;;;;;21.28;39.27;101042.16;5014817;28;56858;-61
2022/07/28 04:44:46;;;;;;;;;4.00;3.00;;;;;21.29;39.54;101043.88;5017254;28;46809;-61
2022/07/28 04:47:12;;;;;;;;;7.25;6.00;;;;;21.27;39.38;101042.25;5015941;28;45548;-61
2022/07/28 04:49:38;;;;;;;;;7.00;6.00;;;;;21.28;39.57;101044.88;5017078;28;45383;-61
2022/07/28 04:52:04;;;;;;;;;4.00;3.25;;;;;21.31;39.76;101045.63;5016141;28;45502;-61
2022/07/28 04:54:29;;;;;;;;;3.50;3.50;;;;;21.28;39.75;101043.97;5014417;28;47064;-61
2022/07/28 04:56:54;;;;;;;;;3.00;2.00;;;;;21.25;39.39;101038.78;5015619;28;45545;-61
2022/07/28 04:59:20;;;;;;;;;6.00;6.00;;;;;21.24;39.80;101040.63;5016852;28;45370;-62
2022/07/28 05:01:45;;;;;;;;;10.00;9.00;;;;;21.26;39.67;101044.09;5015016;28;51202;-61
2022/07/28 05:04:10;;;;;;;;;9.50;9.50;;;;;21.22;39.68;101044.44;5014684;28;55815;-61
2022/07/28 05:06:35;;;;;;;;;5.25;5.25;;;;;21.19;39.53;101044.66;5019633;28;45341;-61
2022/07/28 05:09:01;;;;;;;;;5.50;4.50;;;;;21.11;39.63;101039.78;5012694;28;45821;-61
2022/07/28 05:11:27;;;;;;;;;5.50;4.50;;;;;21.18;39.83;101042.91;5016327;28;45660;-61
2022/07/28 05:13:52;;;;;;;;;5.50;4.00;;;;;21.14;39.61;101036.00;5011813;28;46905;-61
2022/07/28 05:16:18;;;;;;;;;3.00;3.00;;;;;21.13;40.10;101045.09;5012543;28;45784;-61
2022/07/28 05:18:43;;;;;;;;;3.25;3.25;;;;;21.10;40.34;101047.06;5017611;28;45474;-62
2022/07/28 05:21:09;;;;;;;;;5.00;3.75;;;;;21.13;40.46;101053.25;5016591;28;45705;-61
2022/07/28 05:23:34;;;;;;;;;3.25;2.25;;;;;21.15;40.35;101048.56;5014067;28;49558;-62
2022/07/28 05:25:59;;;;;;;;;4.50;4.50;;;;;21.18;40.14;101051.06;5019482;28;45446;-62
2022/07/28 05:28:25;;;;;;;;;2.25;2.25;;;;;21.20;40.29;101059.94;5016285;28;45813;-61
2022/07/28 05:30:50;;;;;;;;;5.00;4.00;;;;;21.20;40.14;101046.38;5015722;28;46809;-61
2022/07/28 05:33:16;;;;;;;;;4.75;4.00;;;;;21.18;41.02;101053.78;5015642;28;46940;-61
2022/07/28 05:35:41;;;;;;;;;3.50;3.50;;;;;21.22;40.26;101050.72;5014573;28;45621;-62
2022/07/28 05:38:06;;;;;;;;;5.00;3.00;;;;;21.22;40.25;101050.72;5014670;28;45506;-62
2022/07/28 05:40:32;;;;;;;;;3.00;3.00;;;;;21.25;40.67;101049.63;5016882;28;45456;-61
2022/07/28 05:42:57;;;;;;;;;3.00;3.00;;;;;21.27;40.68;101053.97;5017446;28;46030;-61
2022/07/28 05:45:23;;;;;;;;;5.25;3.50;;;;;21.28;40.94;101049.41;5014422;28;46043;-61
2022/07/28 05:47:51;;;;;;;;;4.00;4.00;;;;;21.29;40.89;101048.44;5018289;28;45452;-62
2022/07/28 05:50:18;;;;;;;;;4.00;3.00;;;;;21.31;40.72;101056.47;5017484;28;45318;-61
2022/07/28 05:52:44;;;;;;;;;3.00;3.00;;;;;21.28;41.03;101047.59;5017380;28;45498;-61
2022/07/28 05:55:10;;;;;;;;;4.00;3.00;;;;;21.32;40.51;101045.50;5017304;28;45593;-61
2022/07/28 05:57:37;;;;;;;;;4.75;3.25;;;;;21.29;40.80;101045.72;5012771;28;45651;-62
2022/07/28 06:00:05;;;;;;;;;3.00;3.00;;;;;21.22;41.21;101030.88;5015300;28;45489;-61
2022/07/28 06:02:31;;;;;;;;;3.50;2.50;;;;;21.30;40.88;101050.19;5013853;28;46708;-61
2022/07/28 06:04:57;;;;;;;;;3.00;3.00;;;;;21.22;40.93;101039.03;5011899;28;46018;-61
2022/07/28 06:07:22;;;;;;;;;2.75;2.75;;;;;21.25;40.56;101045.09;5015362;28;46006;-62
2022/07/28 06:09:47;;;;;;;;;4.75;4.00;;;;;21.27;40.95;101051.25;5014154;28;45451;-62
2022/07/28 06:12:12;;;;;;;;;3.00;3.00;;;;;21.31;40.55;101051.91;5012687;28;46953;-61
2022/07/28 06:14:38;;;;;;;;;3.00;3.00;;;;;21.31;41.09;101054.63;5015832;28;45518;-62
2022/07/28 06:17:03;;;;;;;;;5.00;3.75;;;;;21.31;40.37;101046.47;5013397;28;45312;-63
2022/07/28 06:19:29;;;;;;;;;4.75;4.75;;;;;21.29;40.92;101051.16;5019201;28;45402;-63
2022/07/28 06:21:54;;;;;;;;;3.50;2.75;;;;;21.25;40.68;101055.94;5017148;28;46413;-64
2022/07/28 06:24:19;;;;;;;;;4.75;3.00;;;;;21.20;40.76;101049.97;5020072;28;45438;-64
2022/07/28 06:26:45;;;;;;;;;4.00;2.00;;;;;21.20;40.61;101052.69;5018113;28;45415;-64
2022/07/28 06:29:11;;;;;;;;;4.00;2.00;;;;;21.19;40.85;101044.66;5020263;28;45314;-63
2022/07/28 06:31:36;;;;;;;;;3.75;3.75;;;;;21.21;41.68;101056.28;5020204;28;45410;-63
2022/07/28 06:34:01;;;;;;;;;3.00;3.00;;;;;21.20;41.28;101049.97;5017985;28;46576;-63
2022/07/28 06:36:27;;;;;;;;;4.00;3.25;;;;;21.19;40.98;101050.09;5019428;28;45391;-64
2022/07/28 06:38:53;;;;;;;;;4.00;4.00;;;;;21.21;41.41;101054.41;5018608;28;45374;-63
2022/07/28 06:41:18;;;;;;;;;5.00;4.00;;;;;21.18;40.84;101051.91;5016795;28;45382;-63
2022/07/28 06:43:43;;;;;;;;;5.50;4.50;;;;;21.20;40.87;101051.81;5017005;28;45314;-63
2022/07/28 06:46:09;;;;;;;;;3.75;2.75;;;;;21.19;40.52;101048.25;5018134;28;45296;-62
2022/07/28 06:48:36;;;;;;;;;3.00;3.00;;;;;21.18;41.07;101049.19;5017046;28;45444;-64
2022/07/28 06:51:02;;;;;;;;;7.00;5.00;;;;;21.21;41.29;101056.28;5015776;28;46234;-63
2022/07/28 06:53:27;;;;;;;;;4.00;4.00;;;;;21.15;41.13;101049.44;5017312;28;45465;-62
2022/07/28 06:55:52;;;;;;;;;5.00;3.75;;;;;21.16;41.42;101056.59;5017949;28;45636;-63
2022/07/28 06:58:18;;;;;;;;;4.00;4.00;;;;;21.16;41.23;101059.31;5016015;28;45356;-63
2022/07/28 07:00:43;;;;;;;;;3.00;3.00;;;;;21.19;41.20;101059.09;5018430;28;46220;-63
2022/07/28 07:03:08;;;;;;;;;6.50;6.00;;;;;21.19;41.64;101050.09;5018292;28;45375;-63
2022/07/28 07:05:34;;;;;;;;;4.50;4.00;;;;;21.28;41.07;101052.13;5018061;28;45311;-62
2022/07/28 07:07:59;;;;;;;;;6.00;4.25;;;;;21.27;40.98;101050.41;5018387;28;45536;-62
2022/07/28 07:10:25;;;;;;;;;5.50;4.25;;;;;21.30;41.17;101069.19;5018981;28;45569;-62
2022/07/28 07:12:50;;;;;;;;;4.25;4.25;;;;;21.29;41.39;101062.03;5017985;28;46395;-62
2022/07/28 07:15:15;;;;;;;;;4.25;4.00;;;;;21.31;41.74;101065.47;5014051;28;45320;-62
2022/07/28 07:17:41;;;;;;;;;5.25;5.25;;;;;21.33;41.44;101059.94;5021164;28;45443;-63
2022/07/28 07:20:08;;;;;;;;;3.00;3.00;;;;;21.32;41.16;101055.47;5021304;28;45964;-62
2022/07/28 07:22:34;;;;;;;;;5.00;5.00;;;;;21.34;40.84;101064.41;5021383;28;45359;-62
2022/07/28 07:25:10;;;;;;;;;5.50;4.00;;;;;21.37;41.33;101066.91;5017751;28;45493;-62
2022/07/28 07:27:35;;;;;;;;;3.75;3.00;;;;;21.36;41.79;101057.88;5021733;28;45383;-62
2022/07/28 07:30:03;;;;;;;;;6.00;6.00;;;;;21.40;41.31;101053.97;5022195;28;46799;-62
2022/07/28 07:32:28;;;;;;;;;6.50;5.75;;;;;21.44;40.88;101065.47;5019794;28;45746;-62
2022/07/28 07:34:54;;;;;;;;;7.25;5.50;;;;;21.42;41.03;101060.16;5019183;28;45523;-62
2022/07/28 07:37:20;;;;;;;;;7.00;5.50;;;;;21.43;40.84;101058.28;5020562;28;45367;-62
2022/07/28 07:39:45;;;;;;;;;0.00;0.00;;;;;21.42;40.70;101060.16;5021974;28;45692;-62
2022/07/28 07:42:10;;;;;;;;;5.00;5.00;;;;;21.40;41.08;101059.41;5021819;28;45418;-63
2022/07/28 07:44:36;;;;;;;;;5.50;5.00;;;;;21.43;40.51;101066.44;5022119;28;45536;-63
2022/07/28 07:47:01;;;;;;;;;5.00;4.75;;;;;21.43;40.66;101058.28;5021028;28;45512;-63
2022/07/28 07:49:26;;;;;;;;;5.50;5.50;;;;;21.49;41.13;101068.75;5014999;28;45555;-63
2022/07/28 07:51:52;;;;;;;;;5.00;4.00;;;;;21.51;41.70;101064.06;5017973;28;55321;-62
2022/07/28 07:54:17;;;;;;;;;6.75;5.50;;;;;21.58;41.01;101057.19;5022269;28;45276;-62
2022/07/28 07:56:42;;;;;;;;;5.00;5.00;;;;;21.40;41.00;101026.81;5020591;28;45520;-63
2022/07/28 07:59:08;;;;;;;;;5.00;4.00;;;;;21.65;40.96;101061.22;5020663;28;47195;-62
2022/07/28 08:01:33;;;;;;;;;5.25;4.25;;;;;21.74;40.94;101066.94;5021878;28;45351;-62
2022/07/28 08:03:59;;;;;;;;;7.25;5.50;;;;;21.79;41.04;101068.31;5021718;28;45340;-62
2022/07/28 08:06:26;;;;;;;;;8.50;5.50;;;;;21.83;40.94;101061.69;5019619;28;45504;-67
2022/07/28 08:08:52;;;;;;;;;6.25;5.75;;;;;21.87;40.38;101054.16;5021952;28;47161;-67
2022/07/28 08:11:17;;;;;;;;;7.00;7.00;;;;;21.88;40.44;101053.16;5019504;28;45501;-68
2022/07/28 08:13:43;;;;;;;;;5.00;5.00;;;;;21.92;40.79;101061.94;5021043;28;50422;-67
2022/07/28 08:16:08;;;;;;;;;7.00;7.00;;;;;21.96;40.02;101058.03;5012147;28;45422;-67
2022/07/28 08:18:33;;;;;;;;;5.25;5.00;;;;;22.04;40.71;101052.03;5020688;28;51404;-67
2022/07/28 08:20:58;;;;;;;;;6.50;5.00;;;;;22.11;39.86;101056.88;5021067;28;45559;-67
2022/07/28 08:23:24;;;;;;;;;4.25;4.00;;;;;22.13;40.04;101048.59;5021909;28;45512;-67
2022/07/28 08:25:49;;;;;;;;;6.25;5.00;;;;;22.18;40.22;101047.25;5022142;28;45355;-68
2022/07/28 08:28:15;;;;;;;;;5.00;5.00;;;;;22.27;41.05;101047.53;5021664;28;46286;-67
2022/07/28 08:30:40;;;;;;;;;9.50;6.00;;;;;22.29;40.50;101049.19;5020903;28;45286;-67
2022/07/28 08:33:05;;;;;;;;;5.50;5.00;;;;;22.32;40.21;101046.25;5021702;28;45313;-67
2022/07/28 08:35:30;;;;;;;;;7.25;6.75;;;;;22.34;40.97;101055.16;5018514;28;48924;-67
2022/07/28 08:37:56;;;;;;;;;4.50;4.00;;;;;22.34;39.69;101037.97;5021502;28;45329;-67
2022/07/28 08:40:21;;;;;;;;;5.75;5.00;;;;;22.35;40.04;101047.84;5021799;28;45410;-67
2022/07/28 08:43:00;;;;;;;;;6.50;5.50;;;;;22.41;39.91;101046.53;5021419;28;45543;-67
2022/07/28 08:45:29;;;;;;;;;6.00;6.00;;;;;22.44;39.52;101044.44;5020670;28;45531;-67
2022/07/28 08:47:55;;;;;;;;;7.75;7.75;;;;;22.50;39.99;101051.22;5021235;28;46324;-67
2022/07/28 08:50:23;;;;;;;;;4.25;4.25;;;;;22.56;39.68;101050.75;5014802;28;45384;-67
2022/07/28 08:52:50;;;;;;;;;4.25;4.25;;;;;22.59;39.36;101053.25;5021436;28;45351;-67
2022/07/28 08:55:22;;;;;;;;;5.00;5.00;;;;;22.61;40.05;101044.97;5020172;28;45396;-67
2022/07/28 08:57:48;;;;;;;;;8.00;6.00;;;;;22.61;40.28;101040.38;5021260;28;46262;-67
2022/07/28 09:00:14;;;;;;;;;7.75;5.00;;;;;22.65;39.19;101041.84;5021524;28;45425;-67
2022/07/28 09:02:42;;;;;;;;;6.50;5.75;;;;;22.73;39.47;101042.13;5021368;28;45407;-67
2022/07/28 09:05:08;;;;;;;;;5.00;5.00;;;;;22.76;39.12;101041.03;5019088;28;45750;-67
2022/07/28 09:07:36;;;;;;;;;5.25;4.50;;;;;22.82;38.75;101043.28;5021165;28;45273;-67
2022/07/28 09:10:04;;;;;;;;;4.75;4.75;;;;;22.85;39.81;101042.16;5021094;28;45397;-67
2022/07/28 09:12:35;;;;;;;;;4.75;4.50;;;;;22.89;39.57;101041.78;5021318;28;45420;-67
2022/07/28 09:15:02;;;;;;;;;5.00;4.00;;;;;22.94;39.55;101038.69;5018703;28;45529;-67
2022/07/28 09:17:27;;;;;;;;;5.75;5.75;;;;;22.99;39.30;101039.19;5021145;28;46540;-67
2022/07/28 09:19:53;;;;;;;;;7.00;5.75;;;;;23.04;39.31;101038.84;5020958;28;45356;-67
2022/07/28 09:22:18;;;;;;;;;5.25;4.25;;;;;23.11;39.13;101042.81;5021372;28;45414;-67
2022/07/28 09:24:45;;;;;;;;;7.00;6.25;;;;;23.12;38.91;101033.66;5019688;28;45216;-67
2022/07/28 09:27:12;;;;;;;;;5.25;5.25;;;;;23.19;39.45;101037.63;5020972;28;46138;-68
2022/07/28 09:29:43;;;;;;;;;7.25;5.25;;;;;23.24;39.14;101042.72;5020834;28;45401;-67
2022/07/28 09:32:10;;;;;;;;;4.25;4.25;;;;;23.25;38.33;101041.69;5020758;28;45364;-68
2022/07/28 09:34:45;;;;;;;;;4.50;4.50;;;;;23.28;38.23;101038.72;5017837;28;45246;-68
2022/07/28 09:37:25;;;;;;;;;6.75;4.75;;;;;23.31;38.26;101035.75;5020911;28;46423;-68
2022/07/28 09:39:53;;;;;;;;;6.00;6.00;;;;;23.37;38.33;101031.66;5020663;28;45444;-68
2022/07/28 09:42:19;;;;;;;;;6.00;5.50;;;;;23.42;37.60;101033.03;5020778;28;45217;-67
2022/07/28 09:45:00;;;;;;;;;5.50;5.00;;;;;23.40;37.68;101021.38;5019436;28;45236;-68
2022/07/28 09:47:29;;;;;;;;;3.00;3.00;;;;;23.48;37.36;101023.47;5020352;28;46424;-68
2022/07/28 09:49:55;;;;;;;;;2.00;2.00;;;;;23.54;38.03;101016.63;5014498;28;45368;-68
2022/07/28 09:52:34;;;;;;;;;5.00;5.00;;;;;23.58;37.14;101021.72;5020292;28;45249;-67
2022/07/28 09:55:00;;;;;;;;;4.00;2.75;;;;;23.62;37.12;101017.75;5019775;28;45316;-68
2022/07/28 09:57:27;;;;;;;;;3.25;3.25;;;;;23.70;37.15;101017.09;5020167;28;46086;-68
2022/07/28 09:59:53;;;;;;;;;3.25;3.25;;;;;23.75;37.89;101014.00;5016897;28;45454;-68
2022/07/28 10:02:23;;;;;;;;;4.50;4.00;;;;;23.76;37.34;100993.94;5014873;28;45595;-68
2022/07/28 10:04:51;;;;;;;;;5.00;4.75;;;;;23.88;36.95;101006.56;5020222;28;45383;-68
2022/07/28 10:07:17;;;;;;;;;4.25;3.00;;;;;23.91;36.72;101008.16;5020077;28;46065;-68
2022/07/28 10:09:57;;;;;;;;;4.25;4.25;;;;;23.92;36.27;101005.28;5020547;28;45366;-68
2022/07/28 10:12:29;;;;;;;;;5.00;3.25;;;;;23.97;36.85;101002.16;5018548;28;45306;-68
2022/07/28 10:14:58;;;;;;;;;4.00;4.00;;;;;24.01;37.31;100998.19;5009534;28;45497;-68
2022/07/28 10:17:33;;;;;;;;;3.00;3.00;;;;;24.08;36.21;101001.28;5018873;28;47205;-68
2022/07/28 10:20:00;;;;;;;;;5.00;3.75;;;;;24.13;36.07;101001.75;5015844;28;45339;-68
2022/07/28 10:22:32;;;;;;;;;4.00;4.00;;;;;24.18;36.10;101005.78;5020122;28;45319;-68
2022/07/28 10:25:04;;;;;;;;;4.00;4.00;;;;;24.22;35.68;100995.47;5019740;28;45241;-68
2022/07/28 10:27:31;;;;;;;;;2.00;2.00;;;;;24.27;35.75;100995.09;5019043;28;45303;-68
2022/07/28 10:29:58;;;;;;;;;2.25;2.25;;;;;24.28;35.56;100986.78;5018602;28;45213;-68
2022/07/28 10:32:25;;;;;;;;;3.00;3.00;;;;;24.32;34.93;100988.22;5019047;28;45412;-68
2022/07/28 10:35:00;;;;;;;;;3.00;2.00;;;;;24.33;34.58;100989.97;5019753;28;45414;-68
2022/07/28 10:37:27;;;;;;;;;2.00;2.00;;;;;24.38;35.38;100990.44;5019709;28;47045;-68
2022/07/28 10:40:08;;;;;;;;;3.00;2.00;;;;;24.38;35.27;100984.13;5016054;28;45478;-68
2022/07/28 10:42:35;;;;;;;;;5.25;3.00;;;;;24.47;34.81;100993.34;5016511;28;45469;-68
2022/07/28 10:45:01;;;;;;;;;1.75;1.75;;;;;24.50;34.80;100999.41;5019440;28;45476;-68
2022/07/28 10:47:27;;;;;;;;;3.50;2.75;;;;;24.54;35.26;101005.47;5019343;28;46293;-68
2022/07/28 10:49:53;;;;;;;;;5.25;5.25;;;;;24.57;34.90;101005.22;5010930;28;45615;-69
2022/07/28 10:52:19;;;;;;;;;4.00;4.00;;;;;24.55;35.42;100993.59;5019112;28;45365;-68
2022/07/28 10:55:02;;;;;;;;;2.75;1.50;;;;;24.62;35.08;101000.22;5018992;28;45402;-69
2022/07/28 10:57:30;;;;;;;;;2.75;2.75;;;;;24.64;34.73;100998.25;5019479;28;45324;-68
2022/07/28 11:00:25;;;;;;;;;2.75;2.25;;;;;24.69;34.21;100992.38;5018917;28;45207;-69
2022/07/28 11:02:55;;;;;;;;;3.00;3.00;;;;;24.72;35.04;100998.41;5011734;28;45376;-68
2022/07/28 11:05:31;;;;;;;;;3.00;3.00;;;;;24.80;35.86;100983.25;5019449;28;46362;-68
2022/07/28 11:07:59;;;;;;;;;3.50;3.00;;;;;24.86;34.87;100985.41;5019629;28;45432;-68
2022/07/28 11:10:27;;;;;;;;;4.50;2.50;;;;;24.89;35.02;100988.75;5016742;28;45509;-68
2022/07/28 11:12:54;;;;;;;;;3.00;3.00;;;;;24.92;35.00;100984.88;5019578;28;45376;-68
2022/07/28 11:15:31;;;;;;;;;0.00;0.00;;;;;24.97;35.13;100985.31;5019045;28;45564;-68
2022/07/28 11:18:05;;;;;;;;;4.75;4.75;;;;;25.02;35.04;100985.75;5019194;28;46131;-68
2022/07/28 11:20:59;;;;;;;;;2.50;2.50;;;;;25.05;34.19;100985.50;5018353;28;45391;-69
2022/07/28 11:23:37;;;;;;;;;5.25;3.00;;;;;25.10;34.13;100985.09;5018694;28;45320;-69
2022/07/28 11:26:24;;;;;;;;;1.75;1.75;;;;;25.12;33.90;100989.38;5018507;28;45396;-68
2022/07/28 11:28:58;;;;;;;;;3.25;3.25;;;;;25.14;33.61;100987.41;5007425;28;46977;-69